EZY2AW EGKK-LEPA
Flight info
| Callsign | EZY2AW |
|---|---|
| Flight time | 1h 50m |
| Altitude | 33000 |
| Route | SFD Y47 DRAKE L151 SITET UN859 SOPIL DCT BALAN DCT EVPOK DCT NARAK DCT GAI DCT LOMRA DCT ROCAN DCT IBRAP DCT LUKEV DCT LORES |
| Aircraft | A320/M-SDE3FGHIRWY/LB1 |
Departure
| Time | 2026-05-06 10:41 |
|---|---|
| Airport | London Gatwick Airport (EGKK) |
Arrival
| Time | 2026-05-06 12:31 |
|---|---|
| Airport | Palma de Mallorca Airport (LEPA) |
| Time | Latitude | Longitude | Altitude | Speed | Heading |
|---|---|---|---|---|---|
| 2026-05-06 10:19 | 51.15846 | -0.17635 | 209 ft | 0 kts | 347° |
| 2026-05-06 10:28 | 51.15841 | -0.17633 | 209 ft | 2 kts | 347° |
| 2026-05-06 10:28 | 51.15824 | -0.17627 | 213 ft | 2 kts | 347° |
| 2026-05-06 10:28 | 51.15807 | -0.17621 | 218 ft | 2 kts | 347° |
| 2026-05-06 10:29 | 51.15790 | -0.17615 | 220 ft | 3 kts | 358° |
| 2026-05-06 10:29 | 51.15773 | -0.17615 | 218 ft | 3 kts | 8° |
| 2026-05-06 10:29 | 51.15757 | -0.17624 | 218 ft | 2 kts | 29° |
| 2026-05-06 10:29 | 51.15743 | -0.17642 | 217 ft | 3 kts | 66° |
| 2026-05-06 10:30 | 51.15740 | -0.17654 | 213 ft | 0 kts | 78° |
| 2026-05-06 10:32 | 51.15740 | -0.17653 | 214 ft | 2 kts | 78° |
| 2026-05-06 10:33 | 51.15749 | -0.17586 | 221 ft | 7 kts | 77° |
| 2026-05-06 10:33 | 51.15727 | -0.17506 | 213 ft | 10 kts | 152° |
| 2026-05-06 10:33 | 51.15663 | -0.17480 | 211 ft | 9 kts | 168° |
| 2026-05-06 10:33 | 51.15603 | -0.17458 | 209 ft | 10 kts | 167° |
| 2026-05-06 10:34 | 51.15510 | -0.17426 | 215 ft | 14 kts | 168° |
| 2026-05-06 10:34 | 51.15420 | -0.17394 | 213 ft | 13 kts | 167° |
| 2026-05-06 10:34 | 51.15321 | -0.17380 | 209 ft | 13 kts | 211° |
| 2026-05-06 10:34 | 51.15292 | -0.17505 | 213 ft | 13 kts | 258° |
| 2026-05-06 10:35 | 51.15269 | -0.17676 | 214 ft | 15 kts | 257° |
| 2026-05-06 10:35 | 51.15247 | -0.17831 | 210 ft | 15 kts | 257° |
| 2026-05-06 10:35 | 51.15220 | -0.18028 | 210 ft | 19 kts | 257° |
| 2026-05-06 10:35 | 51.15192 | -0.18234 | 213 ft | 19 kts | 258° |
| 2026-05-06 10:36 | 51.15170 | -0.18439 | 218 ft | 19 kts | 258° |
| 2026-05-06 10:36 | 51.15143 | -0.18638 | 219 ft | 18 kts | 257° |
| 2026-05-06 10:36 | 51.15116 | -0.18830 | 213 ft | 17 kts | 257° |
| 2026-05-06 10:36 | 51.15092 | -0.19002 | 214 ft | 15 kts | 258° |
| 2026-05-06 10:37 | 51.15062 | -0.19221 | 210 ft | 23 kts | 258° |
| 2026-05-06 10:37 | 51.15026 | -0.19488 | 219 ft | 26 kts | 257° |
| 2026-05-06 10:37 | 51.14986 | -0.19777 | 215 ft | 23 kts | 257° |
| 2026-05-06 10:37 | 51.14950 | -0.20037 | 211 ft | 25 kts | 258° |
| 2026-05-06 10:38 | 51.14913 | -0.20313 | 218 ft | 26 kts | 258° |
| 2026-05-06 10:38 | 51.14880 | -0.20556 | 218 ft | 17 kts | 257° |
| 2026-05-06 10:38 | 51.14803 | -0.20672 | 217 ft | 15 kts | 207° |
| 2026-05-06 10:38 | 51.14715 | -0.20716 | 215 ft | 12 kts | 175° |
| 2026-05-06 10:39 | 51.14637 | -0.20693 | 215 ft | 10 kts | 167° |
| 2026-05-06 10:39 | 51.14596 | -0.20637 | 220 ft | 7 kts | 101° |
| 2026-05-06 10:39 | 51.14599 | -0.20591 | 216 ft | 0 kts | 77° |
| 2026-05-06 10:40 | 51.14599 | -0.20588 | 217 ft | 3 kts | 77° |
| 2026-05-06 10:40 | 51.14654 | -0.20198 | 218 ft | 73 kts | 78° |
| 2026-05-06 10:40 | 51.14807 | -0.19080 | 211 ft | 131 kts | 77° |
| 2026-05-06 10:40 | 51.15026 | -0.17452 | 388 ft | 160 kts | 74° |
| 2026-05-06 10:41 | 51.15257 | -0.15703 | 1098 ft | 161 kts | 74° |
| 2026-05-06 10:41 | 51.15504 | -0.13935 | 1804 ft | 170 kts | 74° |
| 2026-05-06 10:41 | 51.15783 | -0.11980 | 2206 ft | 192 kts | 74° |
| 2026-05-06 10:41 | 51.16088 | -0.09818 | 2532 ft | 212 kts | 75° |
| 2026-05-06 10:42 | 51.16128 | -0.07405 | 3141 ft | 229 kts | 105° |
| 2026-05-06 10:42 | 51.15176 | -0.05287 | 3744 ft | 253 kts | 142° |
| 2026-05-06 10:42 | 51.13509 | -0.04099 | 4367 ft | 271 kts | 163° |
| 2026-05-06 10:42 | 51.11644 | -0.03497 | 5233 ft | 276 kts | 170° |
| 2026-05-06 10:43 | 51.09721 | -0.03074 | 6077 ft | 281 kts | 172° |
| 2026-05-06 10:43 | 51.07775 | -0.02533 | 6734 ft | 286 kts | 168° |
| 2026-05-06 10:43 | 51.05836 | -0.01812 | 7006 ft | 287 kts | 165° |
| 2026-05-06 10:44 | 51.01933 | -0.00424 | 8717 ft | 291 kts | 178° |
| 2026-05-06 10:44 | 50.99901 | -0.00362 | 9593 ft | 293 kts | 179° |
| 2026-05-06 10:44 | 50.97842 | -0.00308 | 10315 ft | 301 kts | 179° |
| 2026-05-06 10:44 | 50.95671 | -0.00255 | 10543 ft | 324 kts | 179° |
| 2026-05-06 10:45 | 50.93342 | -0.00203 | 10889 ft | 342 kts | 179° |
| 2026-05-06 10:45 | 50.90969 | -0.00155 | 11533 ft | 348 kts | 179° |
| 2026-05-06 10:45 | 50.88533 | -0.00100 | 12254 ft | 352 kts | 179° |
| 2026-05-06 10:45 | 50.86071 | -0.00034 | 12981 ft | 356 kts | 179° |
| 2026-05-06 10:46 | 50.83587 | 0.00035 | 13693 ft | 359 kts | 179° |
| 2026-05-06 10:46 | 50.81077 | 0.00097 | 14333 ft | 363 kts | 179° |
| 2026-05-06 10:46 | 50.78545 | 0.00159 | 14981 ft | 365 kts | 179° |
| 2026-05-06 10:46 | 50.75994 | 0.00223 | 15631 ft | 368 kts | 179° |
| 2026-05-06 10:47 | 50.73425 | 0.00290 | 16267 ft | 371 kts | 179° |
| 2026-05-06 10:47 | 50.70831 | 0.00361 | 16802 ft | 374 kts | 179° |
| 2026-05-06 10:47 | 50.68226 | 0.00431 | 16951 ft | 375 kts | 179° |
| 2026-05-06 10:47 | 50.65652 | 0.00498 | 17074 ft | 377 kts | 179° |
| 2026-05-06 10:48 | 50.63027 | 0.00567 | 17723 ft | 378 kts | 179° |
| 2026-05-06 10:48 | 50.60383 | 0.00634 | 18344 ft | 381 kts | 179° |
| 2026-05-06 10:48 | 50.57721 | 0.00700 | 18868 ft | 384 kts | 179° |
| 2026-05-06 10:48 | 50.55043 | 0.00767 | 19407 ft | 386 kts | 179° |
| 2026-05-06 10:49 | 50.52350 | 0.00838 | 19945 ft | 388 kts | 179° |
| 2026-05-06 10:49 | 50.49643 | 0.00910 | 20468 ft | 390 kts | 179° |
| 2026-05-06 10:49 | 50.46920 | 0.00982 | 20980 ft | 392 kts | 179° |
| 2026-05-06 10:49 | 50.44231 | 0.00668 | 21479 ft | 395 kts | 189° |
| 2026-05-06 10:50 | 50.41539 | -0.00259 | 21984 ft | 397 kts | 193° |
| 2026-05-06 10:50 | 50.38841 | -0.01245 | 22475 ft | 399 kts | 193° |
| 2026-05-06 10:50 | 50.36122 | -0.02227 | 22944 ft | 402 kts | 192° |
| 2026-05-06 10:50 | 50.33389 | -0.03200 | 23432 ft | 404 kts | 192° |
| 2026-05-06 10:51 | 50.30640 | -0.04171 | 23855 ft | 406 kts | 192° |
| 2026-05-06 10:51 | 50.27880 | -0.05145 | 24271 ft | 407 kts | 192° |
| 2026-05-06 10:51 | 50.25106 | -0.06080 | 24704 ft | 408 kts | 188° |
| 2026-05-06 10:51 | 50.22317 | -0.06396 | 25114 ft | 408 kts | 178° |
| 2026-05-06 10:52 | 50.19504 | -0.05925 | 25522 ft | 408 kts | 168° |
| 2026-05-06 10:52 | 50.16776 | -0.04679 | 25903 ft | 409 kts | 158° |
| 2026-05-06 10:52 | 50.14170 | -0.02887 | 26290 ft | 410 kts | 156° |
| 2026-05-06 10:52 | 50.11557 | -0.01069 | 26681 ft | 412 kts | 156° |
| 2026-05-06 10:53 | 50.08868 | 0.00464 | 27065 ft | 413 kts | 165° |
| 2026-05-06 10:53 | 50.06074 | 0.01564 | 27417 ft | 415 kts | 166° |
| 2026-05-06 10:53 | 50.03272 | 0.02659 | 27790 ft | 416 kts | 165° |
| 2026-05-06 10:53 | 50.00497 | 0.03748 | 28151 ft | 418 kts | 165° |
| 2026-05-06 10:54 | 49.97675 | 0.04857 | 28499 ft | 419 kts | 165° |
| 2026-05-06 10:54 | 49.94841 | 0.05970 | 28845 ft | 421 kts | 165° |
| 2026-05-06 10:54 | 49.91994 | 0.07087 | 29170 ft | 423 kts | 165° |
| 2026-05-06 10:54 | 49.89137 | 0.08207 | 29483 ft | 424 kts | 165° |
| 2026-05-06 10:55 | 49.86272 | 0.09332 | 29798 ft | 426 kts | 165° |
| 2026-05-06 10:55 | 49.83394 | 0.10466 | 30091 ft | 427 kts | 165° |
| 2026-05-06 10:55 | 49.80550 | 0.11585 | 30344 ft | 429 kts | 165° |
| 2026-05-06 10:55 | 49.77647 | 0.12721 | 30589 ft | 430 kts | 165° |
| 2026-05-06 10:56 | 49.74739 | 0.13851 | 30847 ft | 432 kts | 166° |
| 2026-05-06 10:56 | 49.71823 | 0.14982 | 31149 ft | 431 kts | 166° |
| 2026-05-06 10:56 | 49.68918 | 0.16114 | 31516 ft | 430 kts | 166° |
| 2026-05-06 10:56 | 49.66022 | 0.17245 | 31886 ft | 429 kts | 166° |
| 2026-05-06 10:57 | 49.63140 | 0.18391 | 32246 ft | 427 kts | 166° |
| 2026-05-06 10:57 | 49.60264 | 0.19550 | 32607 ft | 426 kts | 166° |
| 2026-05-06 10:57 | 49.57440 | 0.20697 | 32922 ft | 425 kts | 166° |
| 2026-05-06 10:58 | 49.51733 | 0.23017 | 32976 ft | 423 kts | 166° |
| 2026-05-06 10:58 | 49.46044 | 0.25306 | 32972 ft | 422 kts | 166° |
| 2026-05-06 10:59 | 49.40370 | 0.27568 | 32975 ft | 421 kts | 166° |
| 2026-05-06 10:59 | 49.34740 | 0.29812 | 32973 ft | 420 kts | 165° |
| 2026-05-06 11:00 | 49.29084 | 0.32073 | 32974 ft | 420 kts | 165° |
| 2026-05-06 11:00 | 49.23460 | 0.34434 | 32967 ft | 419 kts | 164° |
| 2026-05-06 11:01 | 49.17851 | 0.36841 | 32967 ft | 418 kts | 164° |
| 2026-05-06 11:01 | 49.12282 | 0.39199 | 32959 ft | 418 kts | 164° |
| 2026-05-06 11:02 | 49.06682 | 0.41534 | 32958 ft | 417 kts | 164° |
| 2026-05-06 11:02 | 49.01089 | 0.43872 | 32955 ft | 417 kts | 164° |
| 2026-05-06 11:03 | 48.95494 | 0.46204 | 32949 ft | 417 kts | 164° |
| 2026-05-06 11:03 | 48.89940 | 0.48517 | 32955 ft | 417 kts | 164° |
| 2026-05-06 11:04 | 48.84344 | 0.50840 | 32951 ft | 417 kts | 164° |
| 2026-05-06 11:04 | 48.78747 | 0.53156 | 32949 ft | 417 kts | 164° |
| 2026-05-06 11:05 | 48.73129 | 0.55404 | 32953 ft | 418 kts | 165° |
| 2026-05-06 11:05 | 48.67492 | 0.57585 | 32955 ft | 418 kts | 165° |
| 2026-05-06 11:06 | 48.61889 | 0.59751 | 32949 ft | 419 kts | 164° |
| 2026-05-06 11:06 | 48.56236 | 0.61954 | 32953 ft | 420 kts | 164° |
| 2026-05-06 11:07 | 48.50582 | 0.64169 | 32950 ft | 420 kts | 164° |
| 2026-05-06 11:07 | 48.44926 | 0.66464 | 32946 ft | 421 kts | 163° |
| 2026-05-06 11:08 | 48.40665 | 0.68217 | 32947 ft | 422 kts | 163° |
| 2026-05-06 11:08 | 48.36718 | 0.69801 | 32948 ft | 410 kts | 163° |
| 2026-05-06 11:09 | 48.31116 | 0.72079 | 32940 ft | 421 kts | 163° |
| 2026-05-06 11:09 | 48.25436 | 0.74389 | 32938 ft | 424 kts | 163° |
| 2026-05-06 11:10 | 48.19767 | 0.76657 | 32936 ft | 425 kts | 164° |
| 2026-05-06 11:10 | 48.14035 | 0.78900 | 32947 ft | 426 kts | 164° |
| 2026-05-06 11:11 | 48.08293 | 0.81138 | 32932 ft | 427 kts | 164° |
| 2026-05-06 11:11 | 48.02545 | 0.83375 | 32940 ft | 428 kts | 164° |
| 2026-05-06 11:12 | 47.96782 | 0.85630 | 32931 ft | 428 kts | 164° |
| 2026-05-06 11:12 | 47.91052 | 0.87871 | 32937 ft | 429 kts | 164° |
| 2026-05-06 11:13 | 47.85271 | 0.90108 | 32927 ft | 430 kts | 164° |
| 2026-05-06 11:13 | 47.79478 | 0.92346 | 32920 ft | 431 kts | 164° |
| 2026-05-06 11:14 | 47.73676 | 0.94600 | 32929 ft | 431 kts | 164° |
| 2026-05-06 11:14 | 47.67899 | 0.96845 | 32933 ft | 432 kts | 164° |
| 2026-05-06 11:15 | 47.62053 | 0.99099 | 32935 ft | 439 kts | 164° |
| 2026-05-06 11:15 | 47.56052 | 1.01401 | 32937 ft | 449 kts | 164° |
| 2026-05-06 11:16 | 47.49985 | 1.03722 | 32936 ft | 451 kts | 164° |
| 2026-05-06 11:16 | 47.43924 | 1.05942 | 32937 ft | 453 kts | 169° |
| 2026-05-06 11:17 | 47.37613 | 1.06327 | 32936 ft | 456 kts | 179° |
| 2026-05-06 11:17 | 47.31263 | 1.06166 | 32937 ft | 456 kts | 179° |
| 2026-05-06 11:18 | 47.24910 | 1.06020 | 32923 ft | 457 kts | 179° |
| 2026-05-06 11:18 | 47.18596 | 1.05874 | 32923 ft | 457 kts | 179° |
| 2026-05-06 11:19 | 47.12229 | 1.05722 | 32918 ft | 458 kts | 179° |
| 2026-05-06 11:19 | 47.05849 | 1.05569 | 32920 ft | 458 kts | 179° |
| 2026-05-06 11:20 | 46.99469 | 1.05412 | 32917 ft | 459 kts | 180° |
| 2026-05-06 11:20 | 46.96276 | 1.05288 | 33037 ft | 461 kts | 181° |
| 2026-05-06 11:20 | 46.93037 | 1.05140 | 32896 ft | 469 kts | 181° |
| 2026-05-06 11:21 | 46.86482 | 1.04818 | 32915 ft | 473 kts | 181° |
| 2026-05-06 11:21 | 46.79938 | 1.04530 | 32917 ft | 473 kts | 181° |
| 2026-05-06 11:22 | 46.73360 | 1.04257 | 33170 ft | 473 kts | 181° |
| 2026-05-06 11:22 | 46.70072 | 1.04117 | 33445 ft | 473 kts | 181° |
| 2026-05-06 11:22 | 46.66784 | 1.03981 | 33720 ft | 472 kts | 181° |
| 2026-05-06 11:22 | 46.63502 | 1.03845 | 33886 ft | 472 kts | 181° |
| 2026-05-06 11:23 | 46.60220 | 1.03703 | 33919 ft | 471 kts | 181° |
| 2026-05-06 11:23 | 46.53713 | 1.03430 | 33622 ft | 469 kts | 180° |
| 2026-05-06 11:23 | 46.50471 | 1.03788 | 33044 ft | 468 kts | 170° |
| 2026-05-06 11:24 | 46.47278 | 1.04801 | 32866 ft | 470 kts | 166° |
| 2026-05-06 11:24 | 46.40890 | 1.06956 | 32909 ft | 472 kts | 167° |
| 2026-05-06 11:25 | 46.34484 | 1.09074 | 32901 ft | 472 kts | 167° |
| 2026-05-06 11:25 | 46.28085 | 1.11187 | 32915 ft | 472 kts | 167° |
| 2026-05-06 11:26 | 46.21733 | 1.13300 | 32914 ft | 471 kts | 167° |
| 2026-05-06 11:26 | 46.15348 | 1.15416 | 32907 ft | 471 kts | 167° |
| 2026-05-06 11:27 | 46.08970 | 1.17514 | 32920 ft | 470 kts | 167° |
| 2026-05-06 11:27 | 46.02594 | 1.19618 | 32909 ft | 470 kts | 167° |
| 2026-05-06 11:28 | 45.96260 | 1.21708 | 32923 ft | 470 kts | 167° |
| 2026-05-06 11:28 | 45.89888 | 1.23800 | 32923 ft | 470 kts | 167° |
| 2026-05-06 11:29 | 45.83518 | 1.25898 | 32915 ft | 470 kts | 167° |
| 2026-05-06 11:29 | 45.77138 | 1.27981 | 32922 ft | 470 kts | 168° |
| 2026-05-06 11:30 | 45.71835 | 1.29703 | 32920 ft | 470 kts | 168° |
| 2026-05-06 11:30 | 45.64412 | 1.32120 | 32907 ft | 471 kts | 168° |
| 2026-05-06 11:31 | 45.58018 | 1.34200 | 32917 ft | 471 kts | 168° |
| 2026-05-06 11:31 | 45.51613 | 1.36268 | 32917 ft | 472 kts | 169° |
| 2026-05-06 11:32 | 45.46289 | 1.37980 | 32922 ft | 472 kts | 168° |
| 2026-05-06 11:32 | 45.38851 | 1.40381 | 32928 ft | 472 kts | 169° |
| 2026-05-06 11:33 | 45.32444 | 1.42444 | 32933 ft | 472 kts | 169° |
| 2026-05-06 11:33 | 45.27122 | 1.44147 | 32938 ft | 472 kts | 169° |
| 2026-05-06 11:34 | 45.20708 | 1.46202 | 32944 ft | 472 kts | 169° |
| 2026-05-06 11:34 | 45.13262 | 1.48580 | 32947 ft | 472 kts | 169° |
| 2026-05-06 11:35 | 45.07881 | 1.50299 | 32944 ft | 473 kts | 169° |
| 2026-05-06 11:35 | 45.01509 | 1.52330 | 32949 ft | 473 kts | 169° |
| 2026-05-06 11:36 | 44.95087 | 1.54364 | 32947 ft | 473 kts | 169° |
| 2026-05-06 11:36 | 44.88661 | 1.56396 | 32944 ft | 473 kts | 169° |
| 2026-05-06 11:37 | 44.82237 | 1.58421 | 32947 ft | 473 kts | 169° |
| 2026-05-06 11:37 | 44.75861 | 1.60427 | 32945 ft | 473 kts | 169° |
| 2026-05-06 11:38 | 44.69448 | 1.62446 | 32952 ft | 472 kts | 170° |
| 2026-05-06 11:38 | 44.63041 | 1.64446 | 32955 ft | 471 kts | 170° |
| 2026-05-06 11:39 | 44.56644 | 1.66448 | 32955 ft | 471 kts | 170° |
| 2026-05-06 11:39 | 44.50304 | 1.68438 | 32961 ft | 470 kts | 170° |
| 2026-05-06 11:40 | 44.43928 | 1.70423 | 32956 ft | 469 kts | 170° |
| 2026-05-06 11:40 | 44.37567 | 1.72400 | 32964 ft | 468 kts | 171° |
| 2026-05-06 11:41 | 44.31216 | 1.74363 | 32965 ft | 467 kts | 171° |
| 2026-05-06 11:41 | 44.24855 | 1.76132 | 32965 ft | 465 kts | 174° |
| 2026-05-06 11:42 | 44.18507 | 1.77465 | 32971 ft | 464 kts | 175° |
| 2026-05-06 11:42 | 44.12116 | 1.78737 | 32968 ft | 464 kts | 175° |
| 2026-05-06 11:43 | 44.05741 | 1.80102 | 32965 ft | 463 kts | 175° |
| 2026-05-06 11:43 | 43.99385 | 1.81526 | 32971 ft | 463 kts | 175° |
| 2026-05-06 11:44 | 43.89890 | 1.83243 | 32977 ft | 458 kts | 180° |
| 2026-05-06 11:44 | 43.83536 | 1.83730 | 32970 ft | 457 kts | 181° |
| 2026-05-06 11:45 | 43.77189 | 1.84167 | 32972 ft | 456 kts | 181° |
| 2026-05-06 11:45 | 43.70851 | 1.84743 | 32974 ft | 456 kts | 180° |
| 2026-05-06 11:46 | 43.64569 | 1.85392 | 32977 ft | 456 kts | 180° |
| 2026-05-06 11:46 | 43.58250 | 1.86028 | 32978 ft | 454 kts | 181° |
| 2026-05-06 11:47 | 43.51948 | 1.86632 | 32973 ft | 454 kts | 181° |
| 2026-05-06 11:47 | 43.45656 | 1.87226 | 32971 ft | 453 kts | 181° |
| 2026-05-06 11:48 | 43.39419 | 1.87816 | 32965 ft | 452 kts | 181° |
| 2026-05-06 11:48 | 43.33150 | 1.88420 | 32969 ft | 451 kts | 181° |
| 2026-05-06 11:49 | 43.26887 | 1.89027 | 32957 ft | 451 kts | 181° |
| 2026-05-06 11:49 | 43.20636 | 1.89622 | 32959 ft | 450 kts | 182° |
| 2026-05-06 11:50 | 43.14387 | 1.90215 | 32963 ft | 450 kts | 182° |
| 2026-05-06 11:50 | 43.08188 | 1.90801 | 32964 ft | 449 kts | 182° |
| 2026-05-06 11:51 | 43.01956 | 1.91394 | 32968 ft | 449 kts | 182° |
| 2026-05-06 11:51 | 42.95732 | 1.91987 | 32960 ft | 448 kts | 182° |
| 2026-05-06 11:52 | 42.89513 | 1.92585 | 32958 ft | 447 kts | 182° |
| 2026-05-06 11:52 | 42.83361 | 1.93175 | 32955 ft | 446 kts | 182° |
| 2026-05-06 11:53 | 42.77183 | 1.93751 | 32953 ft | 444 kts | 182° |
| 2026-05-06 11:53 | 42.71020 | 1.94319 | 32949 ft | 444 kts | 182° |
| 2026-05-06 11:54 | 42.64867 | 1.95536 | 32944 ft | 452 kts | 171° |
| 2026-05-06 11:54 | 42.58824 | 1.97737 | 32942 ft | 453 kts | 172° |
| 2026-05-06 11:55 | 42.52736 | 1.99927 | 32934 ft | 453 kts | 172° |
| 2026-05-06 11:55 | 42.46643 | 2.02108 | 32939 ft | 453 kts | 172° |
| 2026-05-06 11:56 | 42.40549 | 2.04289 | 32935 ft | 453 kts | 172° |
| 2026-05-06 11:56 | 42.34489 | 2.06456 | 32934 ft | 453 kts | 172° |
| 2026-05-06 11:57 | 42.28390 | 2.08635 | 32927 ft | 453 kts | 172° |
| 2026-05-06 11:57 | 42.22282 | 2.10789 | 32929 ft | 453 kts | 172° |
| 2026-05-06 11:58 | 42.16181 | 2.12951 | 32930 ft | 454 kts | 172° |
| 2026-05-06 11:58 | 42.10116 | 2.15094 | 32931 ft | 454 kts | 172° |
| 2026-05-06 11:59 | 42.04012 | 2.17248 | 32935 ft | 453 kts | 172° |
| 2026-05-06 11:59 | 41.97914 | 2.19400 | 32936 ft | 453 kts | 172° |
| 2026-05-06 12:00 | 41.91815 | 2.21545 | 32937 ft | 453 kts | 172° |
| 2026-05-06 12:00 | 41.85764 | 2.23663 | 32938 ft | 453 kts | 173° |
| 2026-05-06 12:01 | 41.79676 | 2.25792 | 32948 ft | 452 kts | 173° |
| 2026-05-06 12:01 | 41.73592 | 2.27919 | 32957 ft | 452 kts | 173° |
| 2026-05-06 12:02 | 41.67558 | 2.30038 | 32958 ft | 438 kts | 173° |
| 2026-05-06 12:02 | 41.64652 | 2.31065 | 32921 ft | 427 kts | 173° |
| 2026-05-06 12:02 | 41.61817 | 2.32057 | 32968 ft | 426 kts | 173° |
| 2026-05-06 12:03 | 41.56084 | 2.34036 | 32961 ft | 426 kts | 173° |
| 2026-05-06 12:03 | 41.50342 | 2.36010 | 32971 ft | 426 kts | 173° |
| 2026-05-06 12:04 | 41.44611 | 2.37983 | 32830 ft | 424 kts | 173° |
| 2026-05-06 12:04 | 41.41769 | 2.38975 | 32251 ft | 420 kts | 173° |
| 2026-05-06 12:04 | 41.38953 | 2.39956 | 31687 ft | 416 kts | 173° |
| 2026-05-06 12:05 | 41.36165 | 2.40921 | 31154 ft | 412 kts | 173° |
| 2026-05-06 12:05 | 41.33400 | 2.41874 | 30649 ft | 408 kts | 173° |
| 2026-05-06 12:05 | 41.30704 | 2.42808 | 30147 ft | 405 kts | 173° |
| 2026-05-06 12:05 | 41.27992 | 2.43748 | 29571 ft | 401 kts | 173° |
| 2026-05-06 12:06 | 41.25303 | 2.44676 | 28990 ft | 397 kts | 174° |
| 2026-05-06 12:06 | 41.22638 | 2.45589 | 28423 ft | 394 kts | 174° |
| 2026-05-06 12:06 | 41.19997 | 2.46492 | 27861 ft | 390 kts | 173° |
| 2026-05-06 12:06 | 41.17378 | 2.47387 | 27305 ft | 387 kts | 173° |
| 2026-05-06 12:07 | 41.14782 | 2.48276 | 26762 ft | 384 kts | 173° |
| 2026-05-06 12:07 | 41.12210 | 2.49157 | 26232 ft | 380 kts | 173° |
| 2026-05-06 12:07 | 41.09691 | 2.50017 | 25715 ft | 378 kts | 173° |
| 2026-05-06 12:07 | 41.07156 | 2.50887 | 25200 ft | 375 kts | 173° |
| 2026-05-06 12:08 | 41.04639 | 2.51750 | 24700 ft | 372 kts | 173° |
| 2026-05-06 12:08 | 41.02142 | 2.52608 | 24212 ft | 369 kts | 173° |
| 2026-05-06 12:08 | 40.99662 | 2.53456 | 23726 ft | 367 kts | 173° |
| 2026-05-06 12:08 | 40.97200 | 2.54294 | 23195 ft | 364 kts | 173° |
| 2026-05-06 12:09 | 40.94752 | 2.55127 | 22654 ft | 362 kts | 173° |
| 2026-05-06 12:09 | 40.92322 | 2.55954 | 22146 ft | 360 kts | 173° |
| 2026-05-06 12:09 | 40.89905 | 2.56779 | 21950 ft | 359 kts | 173° |
| 2026-05-06 12:09 | 40.87519 | 2.57594 | 21966 ft | 360 kts | 173° |
| 2026-05-06 12:10 | 40.85094 | 2.58418 | 21969 ft | 360 kts | 173° |
| 2026-05-06 12:10 | 40.82669 | 2.59241 | 21972 ft | 360 kts | 173° |
| 2026-05-06 12:10 | 40.80237 | 2.60060 | 21972 ft | 360 kts | 173° |
| 2026-05-06 12:10 | 40.77809 | 2.60877 | 21974 ft | 360 kts | 173° |
| 2026-05-06 12:11 | 40.75377 | 2.61700 | 21969 ft | 361 kts | 172° |
| 2026-05-06 12:11 | 40.72948 | 2.62522 | 21970 ft | 361 kts | 172° |
| 2026-05-06 12:11 | 40.70517 | 2.63342 | 21973 ft | 361 kts | 172° |
| 2026-05-06 12:11 | 40.68119 | 2.64153 | 21974 ft | 361 kts | 172° |
| 2026-05-06 12:12 | 40.65685 | 2.64977 | 21972 ft | 361 kts | 172° |
| 2026-05-06 12:12 | 40.63255 | 2.65797 | 21971 ft | 361 kts | 172° |
| 2026-05-06 12:12 | 40.60821 | 2.66619 | 21972 ft | 361 kts | 172° |
| 2026-05-06 12:12 | 40.58386 | 2.67441 | 21969 ft | 361 kts | 172° |
| 2026-05-06 12:13 | 40.55952 | 2.68259 | 21970 ft | 361 kts | 172° |
| 2026-05-06 12:13 | 40.53519 | 2.69079 | 21929 ft | 360 kts | 172° |
| 2026-05-06 12:13 | 40.51139 | 2.69897 | 21457 ft | 358 kts | 170° |
| 2026-05-06 12:13 | 40.48809 | 2.71123 | 20970 ft | 364 kts | 159° |
| 2026-05-06 12:14 | 40.46587 | 2.72728 | 20485 ft | 363 kts | 158° |
| 2026-05-06 12:14 | 40.44381 | 2.74332 | 20036 ft | 361 kts | 158° |
| 2026-05-06 12:14 | 40.42191 | 2.75923 | 19587 ft | 359 kts | 157° |
| 2026-05-06 12:14 | 40.40013 | 2.77504 | 19152 ft | 357 kts | 157° |
| 2026-05-06 12:15 | 40.37846 | 2.79078 | 18725 ft | 355 kts | 157° |
| 2026-05-06 12:15 | 40.35691 | 2.80642 | 18308 ft | 353 kts | 157° |
| 2026-05-06 12:15 | 40.33547 | 2.82196 | 17821 ft | 351 kts | 157° |
| 2026-05-06 12:15 | 40.31440 | 2.83716 | 17364 ft | 349 kts | 157° |
| 2026-05-06 12:16 | 40.29315 | 2.85243 | 16898 ft | 348 kts | 156° |
| 2026-05-06 12:16 | 40.27216 | 2.86753 | 16684 ft | 339 kts | 156° |
| 2026-05-06 12:16 | 40.25182 | 2.88225 | 16547 ft | 329 kts | 156° |
| 2026-05-06 12:16 | 40.23206 | 2.89654 | 16341 ft | 322 kts | 156° |
| 2026-05-06 12:17 | 40.21252 | 2.91060 | 16022 ft | 319 kts | 156° |
| 2026-05-06 12:17 | 40.19317 | 2.92449 | 15588 ft | 315 kts | 156° |
| 2026-05-06 12:17 | 40.17405 | 2.93819 | 15163 ft | 313 kts | 156° |
| 2026-05-06 12:17 | 40.15524 | 2.95166 | 14910 ft | 309 kts | 156° |
| 2026-05-06 12:18 | 40.13668 | 2.96503 | 14785 ft | 301 kts | 156° |
| 2026-05-06 12:18 | 40.11860 | 2.97809 | 14660 ft | 293 kts | 156° |
| 2026-05-06 12:18 | 40.10095 | 2.99079 | 14470 ft | 288 kts | 156° |
| 2026-05-06 12:18 | 40.08344 | 3.00332 | 14217 ft | 286 kts | 156° |
| 2026-05-06 12:19 | 40.06602 | 3.01575 | 13947 ft | 285 kts | 156° |
| 2026-05-06 12:19 | 40.04859 | 3.02819 | 13551 ft | 288 kts | 156° |
| 2026-05-06 12:19 | 40.03077 | 3.04085 | 13018 ft | 295 kts | 156° |
| 2026-05-06 12:19 | 40.01257 | 3.05379 | 12488 ft | 301 kts | 156° |
| 2026-05-06 12:20 | 39.99408 | 3.06697 | 11979 ft | 305 kts | 155° |
| 2026-05-06 12:20 | 39.97557 | 3.08017 | 11478 ft | 309 kts | 155° |
| 2026-05-06 12:20 | 39.95664 | 3.09367 | 10976 ft | 312 kts | 155° |
| 2026-05-06 12:20 | 39.93773 | 3.10712 | 10763 ft | 304 kts | 157° |
| 2026-05-06 12:21 | 39.91827 | 3.11531 | 10629 ft | 287 kts | 176° |
| 2026-05-06 12:21 | 39.89892 | 3.11484 | 10513 ft | 273 kts | 189° |
| 2026-05-06 12:21 | 39.88038 | 3.11221 | 10379 ft | 263 kts | 189° |
| 2026-05-06 12:21 | 39.86240 | 3.10964 | 10189 ft | 258 kts | 189° |
| 2026-05-06 12:22 | 39.84465 | 3.10708 | 9878 ft | 256 kts | 189° |
| 2026-05-06 12:22 | 39.82714 | 3.10453 | 9703 ft | 249 kts | 189° |
| 2026-05-06 12:22 | 39.81045 | 3.10213 | 9575 ft | 240 kts | 189° |
| 2026-05-06 12:22 | 39.79442 | 3.09985 | 9434 ft | 225 kts | 189° |
| 2026-05-06 12:23 | 39.77942 | 3.09773 | 9312 ft | 207 kts | 189° |
| 2026-05-06 12:23 | 39.76544 | 3.09576 | 8961 ft | 200 kts | 189° |
| 2026-05-06 12:23 | 39.75165 | 3.09376 | 8505 ft | 199 kts | 189° |
| 2026-05-06 12:23 | 39.73794 | 3.09175 | 8089 ft | 198 kts | 189° |
| 2026-05-06 12:24 | 39.72451 | 3.08849 | 7664 ft | 195 kts | 200° |
| 2026-05-06 12:24 | 39.71228 | 3.08113 | 7236 ft | 193 kts | 214° |
| 2026-05-06 12:24 | 39.70191 | 3.07019 | 6807 ft | 192 kts | 228° |
| 2026-05-06 12:24 | 39.69409 | 3.05668 | 6389 ft | 189 kts | 240° |
| 2026-05-06 12:25 | 39.68730 | 3.04204 | 5893 ft | 189 kts | 239° |
| 2026-05-06 12:25 | 39.68047 | 3.02747 | 5388 ft | 189 kts | 239° |
| 2026-05-06 12:25 | 39.67363 | 3.01291 | 4904 ft | 189 kts | 239° |
| 2026-05-06 12:25 | 39.66679 | 2.99835 | 4404 ft | 189 kts | 239° |
| 2026-05-06 12:26 | 39.66013 | 2.98416 | 4176 ft | 176 kts | 238° |
| 2026-05-06 12:26 | 39.65390 | 2.97090 | 3903 ft | 170 kts | 238° |
| 2026-05-06 12:26 | 39.64778 | 2.95788 | 3563 ft | 169 kts | 238° |
| 2026-05-06 12:26 | 39.64169 | 2.94491 | 3268 ft | 168 kts | 238° |
| 2026-05-06 12:27 | 39.63566 | 2.93210 | 3055 ft | 168 kts | 238° |
| 2026-05-06 12:27 | 39.62959 | 2.91918 | 2804 ft | 164 kts | 238° |
| 2026-05-06 12:27 | 39.62381 | 2.90690 | 2582 ft | 155 kts | 238° |
| 2026-05-06 12:27 | 39.61836 | 2.89530 | 2381 ft | 148 kts | 238° |
| 2026-05-06 12:28 | 39.61306 | 2.88404 | 2190 ft | 145 kts | 238° |
| 2026-05-06 12:28 | 39.60782 | 2.87290 | 1997 ft | 144 kts | 238° |
| 2026-05-06 12:28 | 39.60261 | 2.86184 | 1799 ft | 143 kts | 238° |
| 2026-05-06 12:28 | 39.59742 | 2.85081 | 1613 ft | 143 kts | 238° |
| 2026-05-06 12:29 | 39.59225 | 2.83982 | 1415 ft | 143 kts | 238° |
| 2026-05-06 12:29 | 39.58716 | 2.82902 | 1238 ft | 142 kts | 238° |
| 2026-05-06 12:29 | 39.58207 | 2.81821 | 1048 ft | 140 kts | 238° |
| 2026-05-06 12:29 | 39.57702 | 2.80751 | 868 ft | 138 kts | 238° |
| 2026-05-06 12:30 | 39.57208 | 2.79704 | 673 ft | 134 kts | 237° |
| 2026-05-06 12:30 | 39.56720 | 2.78669 | 502 ft | 133 kts | 238° |
| 2026-05-06 12:30 | 39.56240 | 2.77651 | 330 ft | 132 kts | 238° |
| 2026-05-06 12:30 | 39.55769 | 2.76644 | 143 ft | 130 kts | 238° |
| 2026-05-06 12:31 | 39.55302 | 2.75657 | 29 ft | 122 kts | 238° |
| 2026-05-06 12:31 | 39.54947 | 2.74910 | 26 ft | 74 kts | 238° |
| 2026-05-06 12:31 | 39.54823 | 2.74566 | 27 ft | 31 kts | 257° |
| 2026-05-06 12:31 | 39.54805 | 2.74407 | 28 ft | 15 kts | 265° |
| 2026-05-06 12:32 | 39.54802 | 2.74272 | 29 ft | 16 kts | 268° |
| 2026-05-06 12:32 | 39.54829 | 2.74134 | 29 ft | 17 kts | 310° |
| 2026-05-06 12:32 | 39.54930 | 2.74045 | 28 ft | 18 kts | 327° |
| 2026-05-06 12:32 | 39.54931 | 2.73956 | 28 ft | 10 kts | 270° |
| 2026-05-06 12:33 | 39.54982 | 2.73895 | 28 ft | 10 kts | 328° |
| 2026-05-06 12:33 | 39.55032 | 2.73856 | 27 ft | 7 kts | 329° |
| 2026-05-06 12:33 | 39.55038 | 2.73808 | 27 ft | 6 kts | 249° |
| 2026-05-06 12:33 | 39.55014 | 2.73756 | 27 ft | 8 kts | 239° |
| 2026-05-06 12:34 | 39.55005 | 2.73737 | 27 ft | 1 kts | 239° |
| 2026-05-06 12:34 | 39.55002 | 2.73729 | 27 ft | 2 kts | 240° |